sensor_id;sensor_type;location;lat;lon;timestamp;pressure;altitude;pressure_sealevel;temperature;humidity
54854;BME280;40747;49.480;8.658;2023-07-13T00:01:14;100238.16;;;22.35;62.78
54854;BME280;40747;49.480;8.658;2023-07-13T00:03:39;100245.25;;;22.36;61.35
54854;BME280;40747;49.480;8.658;2023-07-13T00:06:07;100248.16;;;22.33;61.18
54854;BME280;40747;49.480;8.658;2023-07-13T00:08:33;100242.91;;;22.31;63.32
54854;BME280;40747;49.480;8.658;2023-07-13T00:10:59;100251.09;;;22.30;64.15
54854;BME280;40747;49.480;8.658;2023-07-13T00:13:25;100250.97;;;22.31;63.52
54854;BME280;40747;49.480;8.658;2023-07-13T00:15:50;100255.72;;;22.27;61.78
54854;BME280;40747;49.480;8.658;2023-07-13T00:18:15;100252.69;;;22.21;61.18
54854;BME280;40747;49.480;8.658;2023-07-13T00:20:41;100256.81;;;22.25;63.76
54854;BME280;40747;49.480;8.658;2023-07-13T00:23:07;100255.16;;;22.24;65.03
54854;BME280;40747;49.480;8.658;2023-07-13T00:25:32;100254.53;;;22.09;59.74
54854;BME280;40747;49.480;8.658;2023-07-13T00:27:57;100264.31;;;22.10;60.20
54854;BME280;40747;49.480;8.658;2023-07-13T00:30:23;100248.56;;;22.17;65.37
54854;BME280;40747;49.480;8.658;2023-07-13T00:32:49;100256.75;;;22.15;59.26
54854;BME280;40747;49.480;8.658;2023-07-13T00:35:15;100243.22;;;21.94;58.55
54854;BME280;40747;49.480;8.658;2023-07-13T00:37:41;100249.50;;;21.48;58.97
54854;BME280;40747;49.480;8.658;2023-07-13T00:40:07;100241.78;;;21.32;59.03
54854;BME280;40747;49.480;8.658;2023-07-13T00:42:33;100250.44;;;21.35;58.60
54854;BME280;40747;49.480;8.658;2023-07-13T00:47:32;100247.25;;;20.83;59.14
54854;BME280;40747;49.480;8.658;2023-07-13T00:49:58;100248.53;;;21.02;59.26
54854;BME280;40747;49.480;8.658;2023-07-13T00:52:24;100254.19;;;20.86;59.38
54854;BME280;40747;49.480;8.658;2023-07-13T00:54:49;100251.75;;;20.45;60.23
54854;BME280;40747;49.480;8.658;2023-07-13T00:57:17;100255.75;;;20.40;60.79
54854;BME280;40747;49.480;8.658;2023-07-13T00:59:48;100257.63;;;20.13;61.62
54854;BME280;40747;49.480;8.658;2023-07-13T01:02:14;100261.81;;;20.05;62.44
54854;BME280;40747;49.480;8.658;2023-07-13T01:04:39;100261.16;;;20.01;62.24
54854;BME280;40747;49.480;8.658;2023-07-13T01:07:06;100247.06;;;19.99;61.73
54854;BME280;40747;49.480;8.658;2023-07-13T01:09:32;100260.22;;;20.02;61.33
54854;BME280;40747;49.480;8.658;2023-07-13T01:11:57;100257.75;;;19.99;61.38
54854;BME280;40747;49.480;8.658;2023-07-13T01:14:24;100262.72;;;20.17;61.28
54854;BME280;40747;49.480;8.658;2023-07-13T01:16:50;100254.78;;;20.28;62.78
54854;BME280;40747;49.480;8.658;2023-07-13T01:19:41;100255.75;;;20.40;61.30
54854;BME280;40747;49.480;8.658;2023-07-13T01:22:13;100267.56;;;20.49;62.54
54854;BME280;40747;49.480;8.658;2023-07-13T01:24:41;100264.69;;;20.52;62.87
54854;BME280;40747;49.480;8.658;2023-07-13T01:27:08;100268.13;;;20.54;62.76
54854;BME280;40747;49.480;8.658;2023-07-13T01:29:35;100268.63;;;20.59;64.07
54854;BME280;40747;49.480;8.658;2023-07-13T01:32:08;100259.09;;;20.55;62.02
54854;BME280;40747;49.480;8.658;2023-07-13T01:34:34;100262.34;;;20.47;61.92
54854;BME280;40747;49.480;8.658;2023-07-13T01:36:59;100258.06;;;20.44;62.52
54854;BME280;40747;49.480;8.658;2023-07-13T01:39:24;100261.50;;;20.46;62.75
54854;BME280;40747;49.480;8.658;2023-07-13T01:41:49;100274.28;;;20.30;61.42
54854;BME280;40747;49.480;8.658;2023-07-13T01:44:15;100271.75;;;20.16;64.40
54854;BME280;40747;49.480;8.658;2023-07-13T01:46:40;100270.22;;;20.11;63.59
54854;BME280;40747;49.480;8.658;2023-07-13T01:49:06;100271.50;;;20.19;64.34
54854;BME280;40747;49.480;8.658;2023-07-13T01:51:31;100272.72;;;20.02;64.08
54854;BME280;40747;49.480;8.658;2023-07-13T01:53:56;100274.75;;;19.98;64.94
54854;BME280;40747;49.480;8.658;2023-07-13T01:56:21;100283.31;;;20.03;65.21
54854;BME280;40747;49.480;8.658;2023-07-13T01:58:47;100283.53;;;20.00;64.91
54854;BME280;40747;49.480;8.658;2023-07-13T02:01:13;100277.22;;;19.88;64.74
54854;BME280;40747;49.480;8.658;2023-07-13T02:03:38;100288.41;;;19.80;64.88
54854;BME280;40747;49.480;8.658;2023-07-13T02:06:04;100298.38;;;19.65;65.07
54854;BME280;40747;49.480;8.658;2023-07-13T02:08:29;100303.19;;;19.60;65.40
54854;BME280;40747;49.480;8.658;2023-07-13T02:10:54;100298.69;;;19.61;66.24
54854;BME280;40747;49.480;8.658;2023-07-13T02:13:20;100293.56;;;19.58;65.89
54854;BME280;40747;49.480;8.658;2023-07-13T02:15:45;100298.97;;;19.43;64.74
54854;BME280;40747;49.480;8.658;2023-07-13T02:18:10;100304.22;;;19.45;65.83
54854;BME280;40747;49.480;8.658;2023-07-13T02:20:35;100307.41;;;19.37;65.05
54854;BME280;40747;49.480;8.658;2023-07-13T02:23:01;100296.84;;;19.36;67.03
54854;BME280;40747;49.480;8.658;2023-07-13T02:25:26;100303.47;;;19.30;65.79
54854;BME280;40747;49.480;8.658;2023-07-13T02:27:52;100298.19;;;19.15;64.51
54854;BME280;40747;49.480;8.658;2023-07-13T02:30:18;100300.78;;;18.75;65.78
54854;BME280;40747;49.480;8.658;2023-07-13T02:32:43;100303.78;;;18.29;66.89
54854;BME280;40747;49.480;8.658;2023-07-13T02:35:09;100285.88;;;18.16;66.88
54854;BME280;40747;49.480;8.658;2023-07-13T02:37:35;100295.66;;;18.30;66.86
54854;BME280;40747;49.480;8.658;2023-07-13T02:40:00;100277.28;;;17.82;68.06
54854;BME280;40747;49.480;8.658;2023-07-13T02:42:27;100268.34;;;17.55;68.82
54854;BME280;40747;49.480;8.658;2023-07-13T02:44:52;100292.03;;;17.74;68.36
54854;BME280;40747;49.480;8.658;2023-07-13T02:47:18;100305.88;;;17.95;68.60
54854;BME280;40747;49.480;8.658;2023-07-13T02:49:43;100302.44;;;18.22;68.90
54854;BME280;40747;49.480;8.658;2023-07-13T02:52:09;100306.50;;;18.42;70.04
54854;BME280;40747;49.480;8.658;2023-07-13T02:54:34;100309.25;;;18.55;68.92
54854;BME280;40747;49.480;8.658;2023-07-13T02:56:59;100310.97;;;18.56;67.75
54854;BME280;40747;49.480;8.658;2023-07-13T02:59:25;100299.25;;;18.58;66.54
54854;BME280;40747;49.480;8.658;2023-07-13T03:01:50;100308.47;;;18.67;68.71
54854;BME280;40747;49.480;8.658;2023-07-13T03:04:16;100308.34;;;18.69;68.66
54854;BME280;40747;49.480;8.658;2023-07-13T03:06:44;100299.97;;;18.60;67.29
54854;BME280;40747;49.480;8.658;2023-07-13T03:09:10;100307.00;;;18.34;67.06
54854;BME280;40747;49.480;8.658;2023-07-13T03:11:35;100307.19;;;18.45;67.03
54854;BME280;40747;49.480;8.658;2023-07-13T03:14:00;100316.69;;;18.49;66.56
54854;BME280;40747;49.480;8.658;2023-07-13T03:16:26;100303.69;;;18.58;68.53
54854;BME280;40747;49.480;8.658;2023-07-13T03:18:51;100304.19;;;18.64;69.36
54854;BME280;40747;49.480;8.658;2023-07-13T03:21:16;100301.41;;;18.66;67.94
54854;BME280;40747;49.480;8.658;2023-07-13T03:23:42;100303.53;;;18.61;67.98
54854;BME280;40747;49.480;8.658;2023-07-13T03:26:10;100298.25;;;18.59;68.31
54854;BME280;40747;49.480;8.658;2023-07-13T03:28:36;100294.19;;;18.54;70.02
54854;BME280;40747;49.480;8.658;2023-07-13T03:31:04;100305.13;;;18.63;69.90
54854;BME280;40747;49.480;8.658;2023-07-13T03:33:30;100304.47;;;18.60;70.39
54854;BME280;40747;49.480;8.658;2023-07-13T03:35:56;100309.03;;;18.58;69.93
54854;BME280;40747;49.480;8.658;2023-07-13T03:38:21;100298.28;;;18.45;70.62
54854;BME280;40747;49.480;8.658;2023-07-13T03:40:47;100301.63;;;18.48;70.30
54854;BME280;40747;49.480;8.658;2023-07-13T03:43:12;100313.47;;;18.44;71.92
54854;BME280;40747;49.480;8.658;2023-07-13T03:45:38;100316.22;;;18.43;71.56
54854;BME280;40747;49.480;8.658;2023-07-13T03:48:03;100314.41;;;18.43;70.98
54854;BME280;40747;49.480;8.658;2023-07-13T03:50:30;100315.25;;;18.44;71.19
54854;BME280;40747;49.480;8.658;2023-07-13T03:52:57;100323.00;;;18.34;69.82
54854;BME280;40747;49.480;8.658;2023-07-13T03:55:22;100308.25;;;18.14;69.49
54854;BME280;40747;49.480;8.658;2023-07-13T03:57:47;100323.00;;;18.20;71.66
54854;BME280;40747;49.480;8.658;2023-07-13T04:00:13;100314.72;;;18.10;70.00
54854;BME280;40747;49.480;8.658;2023-07-13T04:02:39;100324.91;;;18.03;70.48
54854;BME280;40747;49.480;8.658;2023-07-13T04:05:04;100327.94;;;18.11;70.61
54854;BME280;40747;49.480;8.658;2023-07-13T04:07:30;100321.94;;;18.08;69.79
54854;BME280;40747;49.480;8.658;2023-07-13T04:09:55;100318.34;;;18.09;70.15
54854;BME280;40747;49.480;8.658;2023-07-13T04:12:20;100317.50;;;18.08;70.40
54854;BME280;40747;49.480;8.658;2023-07-13T04:14:45;100328.81;;;18.12;70.24
54854;BME280;40747;49.480;8.658;2023-07-13T04:17:11;100327.28;;;18.08;70.50
54854;BME280;40747;49.480;8.658;2023-07-13T04:19:36;100333.88;;;18.02;70.17
54854;BME280;40747;49.480;8.658;2023-07-13T04:22:01;100329.94;;;17.93;70.64
54854;BME280;40747;49.480;8.658;2023-07-13T04:24:27;100333.09;;;18.00;70.54
54854;BME280;40747;49.480;8.658;2023-07-13T04:26:52;100341.94;;;18.00;70.22
54854;BME280;40747;49.480;8.658;2023-07-13T04:29:17;100345.84;;;17.95;70.29
54854;BME280;40747;49.480;8.658;2023-07-13T04:31:42;100341.63;;;17.91;70.08
54854;BME280;40747;49.480;8.658;2023-07-13T04:34:08;100350.91;;;17.99;70.42
54854;BME280;40747;49.480;8.658;2023-07-13T04:36:33;100349.34;;;17.95;70.21
54854;BME280;40747;49.480;8.658;2023-07-13T04:39:02;100347.25;;;18.00;70.54
54854;BME280;40747;49.480;8.658;2023-07-13T04:41:28;100351.16;;;17.95;70.86
54854;BME280;40747;49.480;8.658;2023-07-13T04:43:53;100352.06;;;17.79;71.28
54854;BME280;40747;49.480;8.658;2023-07-13T04:46:19;100365.41;;;17.79;71.56
54854;BME280;40747;49.480;8.658;2023-07-13T04:48:44;100354.16;;;17.74;71.16
54854;BME280;40747;49.480;8.658;2023-07-13T04:51:09;100356.72;;;17.76;71.58
54854;BME280;40747;49.480;8.658;2023-07-13T04:53:35;100347.31;;;17.70;71.52
54854;BME280;40747;49.480;8.658;2023-07-13T04:56:01;100362.06;;;17.76;70.96
54854;BME280;40747;49.480;8.658;2023-07-13T04:58:26;100357.75;;;17.73;71.05
54854;BME280;40747;49.480;8.658;2023-07-13T05:00:52;100364.63;;;17.77;70.85
54854;BME280;40747;49.480;8.658;2023-07-13T05:03:18;100363.88;;;17.75;70.70
54854;BME280;40747;49.480;8.658;2023-07-13T05:05:53;100348.06;;;17.72;71.33
54854;BME280;40747;49.480;8.658;2023-07-13T05:08:19;100356.16;;;17.85;71.01
54854;BME280;40747;49.480;8.658;2023-07-13T05:10:44;100369.81;;;17.95;70.59
54854;BME280;40747;49.480;8.658;2023-07-13T05:13:09;100362.16;;;17.89;70.80
54854;BME280;40747;49.480;8.658;2023-07-13T05:15:35;100369.44;;;18.01;70.50
54854;BME280;40747;49.480;8.658;2023-07-13T05:18:00;100372.69;;;18.06;70.55
54854;BME280;40747;49.480;8.658;2023-07-13T05:20:26;100374.94;;;17.98;70.74
54854;BME280;40747;49.480;8.658;2023-07-13T05:22:51;100383.47;;;17.89;71.03
54854;BME280;40747;49.480;8.658;2023-07-13T05:25:16;100366.97;;;17.98;71.80
54854;BME280;40747;49.480;8.658;2023-07-13T05:27:42;100380.69;;;18.06;70.89
54854;BME280;40747;49.480;8.658;2023-07-13T05:30:11;100372.50;;;18.09;70.86
54854;BME280;40747;49.480;8.658;2023-07-13T05:32:37;100386.13;;;18.19;70.21
54854;BME280;40747;49.480;8.658;2023-07-13T05:35:02;100384.03;;;18.24;70.48
54854;BME280;40747;49.480;8.658;2023-07-13T05:37:28;100389.34;;;18.39;70.18
54854;BME280;40747;49.480;8.658;2023-07-13T05:39:53;100373.44;;;18.51;70.24
54854;BME280;40747;49.480;8.658;2023-07-13T05:42:18;100381.22;;;18.69;70.48
54854;BME280;40747;49.480;8.658;2023-07-13T05:44:43;100381.50;;;18.79;69.98
54854;BME280;40747;49.480;8.658;2023-07-13T05:47:09;100390.06;;;18.84;68.96
54854;BME280;40747;49.480;8.658;2023-07-13T05:49:34;100389.41;;;18.95;68.69
54854;BME280;40747;49.480;8.658;2023-07-13T05:51:59;100391.28;;;19.07;68.52
54854;BME280;40747;49.480;8.658;2023-07-13T05:54:25;100390.50;;;19.05;67.19
54854;BME280;40747;49.480;8.658;2023-07-13T05:56:50;100395.66;;;19.08;68.32
54854;BME280;40747;49.480;8.658;2023-07-13T05:59:17;100393.19;;;19.05;68.61
54854;BME280;40747;49.480;8.658;2023-07-13T06:01:43;100400.56;;;19.02;68.70
54854;BME280;40747;49.480;8.658;2023-07-13T06:04:08;100399.28;;;19.07;67.78
54854;BME280;40747;49.480;8.658;2023-07-13T06:06:33;100404.84;;;19.04;67.60
54854;BME280;40747;49.480;8.658;2023-07-13T06:08:58;100412.94;;;19.03;67.58
54854;BME280;40747;49.480;8.658;2023-07-13T06:11:25;100415.25;;;18.94;69.49
54854;BME280;40747;49.480;8.658;2023-07-13T06:13:51;100413.63;;;18.92;70.23
54854;BME280;40747;49.480;8.658;2023-07-13T06:16:17;100419.72;;;18.94;69.81
54854;BME280;40747;49.480;8.658;2023-07-13T06:18:43;100423.31;;;19.07;70.58
54854;BME280;40747;49.480;8.658;2023-07-13T06:21:11;100427.72;;;19.08;70.48
54854;BME280;40747;49.480;8.658;2023-07-13T06:23:37;100428.09;;;19.02;71.12
54854;BME280;40747;49.480;8.658;2023-07-13T06:26:03;100430.59;;;18.76;71.85
54854;BME280;40747;49.480;8.658;2023-07-13T06:28:29;100433.63;;;18.84;72.17
54854;BME280;40747;49.480;8.658;2023-07-13T06:30:55;100436.09;;;19.02;72.19
54854;BME280;40747;49.480;8.658;2023-07-13T06:33:20;100439.78;;;19.14;71.41
54854;BME280;40747;49.480;8.658;2023-07-13T06:35:45;100437.53;;;19.35;69.67
54854;BME280;40747;49.480;8.658;2023-07-13T06:38:11;100432.25;;;19.48;69.57
54854;BME280;40747;49.480;8.658;2023-07-13T06:40:36;100440.91;;;19.52;66.63
54854;BME280;40747;49.480;8.658;2023-07-13T06:43:01;100453.69;;;19.74;67.71
54854;BME280;40747;49.480;8.658;2023-07-13T06:45:26;100460.41;;;19.94;64.88
54854;BME280;40747;49.480;8.658;2023-07-13T06:47:52;100435.63;;;19.77;64.30
54854;BME280;40747;49.480;8.658;2023-07-13T06:50:17;100464.16;;;20.04;64.16
54854;BME280;40747;49.480;8.658;2023-07-13T06:52:42;100463.94;;;20.33;63.82
54854;BME280;40747;49.480;8.658;2023-07-13T06:55:08;100456.78;;;20.46;62.37
54854;BME280;40747;49.480;8.658;2023-07-13T06:57:33;100458.09;;;20.54;60.27
54854;BME280;40747;49.480;8.658;2023-07-13T06:59:59;100458.50;;;20.60;60.09
54854;BME280;40747;49.480;8.658;2023-07-13T07:02:24;100457.97;;;20.81;59.74
54854;BME280;40747;49.480;8.658;2023-07-13T07:04:49;100452.88;;;21.02;58.77
54854;BME280;40747;49.480;8.658;2023-07-13T07:07:15;100454.03;;;21.11;57.46
54854;BME280;40747;49.480;8.658;2023-07-13T07:09:40;100468.00;;;21.27;57.79
54854;BME280;40747;49.480;8.658;2023-07-13T07:12:06;100461.13;;;21.36;57.38
54854;BME280;40747;49.480;8.658;2023-07-13T07:14:32;100470.53;;;21.18;57.44
54854;BME280;40747;49.480;8.658;2023-07-13T07:16:57;100469.69;;;21.41;56.81
54854;BME280;40747;49.480;8.658;2023-07-13T07:19:23;100471.31;;;21.31;55.99
54854;BME280;40747;49.480;8.658;2023-07-13T07:21:49;100461.25;;;21.35;55.45
54854;BME280;40747;49.480;8.658;2023-07-13T07:24:14;100472.34;;;21.41;55.57
54854;BME280;40747;49.480;8.658;2023-07-13T07:26:40;100469.44;;;21.20;55.83
54854;BME280;40747;49.480;8.658;2023-07-13T07:29:06;100474.00;;;21.31;55.40
54854;BME280;40747;49.480;8.658;2023-07-13T07:31:31;100472.34;;;21.41;54.72
54854;BME280;40747;49.480;8.658;2023-07-13T07:33:56;100479.16;;;21.83;54.44
54854;BME280;40747;49.480;8.658;2023-07-13T07:36:21;100472.13;;;22.40;53.99
54854;BME280;40747;49.480;8.658;2023-07-13T07:38:47;100467.63;;;22.86;53.38
54854;BME280;40747;49.480;8.658;2023-07-13T07:41:12;100463.22;;;23.19;52.00
54854;BME280;40747;49.480;8.658;2023-07-13T07:43:38;100465.41;;;23.14;50.82
54854;BME280;40747;49.480;8.658;2023-07-13T07:46:03;100476.00;;;23.49;50.42
54854;BME280;40747;49.480;8.658;2023-07-13T07:48:29;100465.50;;;24.00;51.49
54854;BME280;40747;49.480;8.658;2023-07-13T07:50:54;100469.09;;;23.89;48.04
54854;BME280;40747;49.480;8.658;2023-07-13T07:53:19;100462.97;;;23.87;48.29
54854;BME280;40747;49.480;8.658;2023-07-13T07:55:44;100474.31;;;24.23;48.41
54854;BME280;40747;49.480;8.658;2023-07-13T07:58:10;100472.66;;;24.32;48.01
54854;BME280;40747;49.480;8.658;2023-07-13T08:00:36;100476.41;;;23.98;48.80
54854;BME280;40747;49.480;8.658;2023-07-13T08:03:01;100483.09;;;24.67;48.58
54854;BME280;40747;49.480;8.658;2023-07-13T08:05:27;100476.38;;;24.93;49.88
54854;BME280;40747;49.480;8.658;2023-07-13T08:07:53;100474.84;;;25.50;47.80
54854;BME280;40747;49.480;8.658;2023-07-13T08:10:18;100470.94;;;25.24;46.33
54854;BME280;40747;49.480;8.658;2023-07-13T08:12:44;100474.00;;;25.70;46.32
54854;BME280;40747;49.480;8.658;2023-07-13T08:15:12;100475.56;;;26.11;46.68
54854;BME280;40747;49.480;8.658;2023-07-13T08:17:38;100465.94;;;26.46;46.34
54854;BME280;40747;49.480;8.658;2023-07-13T08:20:04;100457.75;;;26.66;45.28
54854;BME280;40747;49.480;8.658;2023-07-13T08:22:29;100473.88;;;26.58;44.88
54854;BME280;40747;49.480;8.658;2023-07-13T08:24:54;100472.84;;;27.06;44.18
54854;BME280;40747;49.480;8.658;2023-07-13T08:27:24;100466.44;;;26.60;44.12
54854;BME280;40747;49.480;8.658;2023-07-13T08:29:50;100471.97;;;27.06;44.97
54854;BME280;40747;49.480;8.658;2023-07-13T08:32:16;100464.16;;;27.30;44.14
54854;BME280;40747;49.480;8.658;2023-07-13T08:34:42;100456.63;;;26.21;44.42
54854;BME280;40747;49.480;8.658;2023-07-13T08:37:08;100449.81;;;26.17;45.16
54854;BME280;40747;49.480;8.658;2023-07-13T08:39:34;100464.00;;;26.29;45.50
54854;BME280;40747;49.480;8.658;2023-07-13T08:42:07;100461.84;;;26.70;44.12
54854;BME280;40747;49.480;8.658;2023-07-13T08:45:13;100452.97;;;26.97;44.33
54854;BME280;40747;49.480;8.658;2023-07-13T08:47:46;100443.47;;;27.57;43.24
54854;BME280;40747;49.480;8.658;2023-07-13T08:50:15;100440.81;;;27.66;44.83
54854;BME280;40747;49.480;8.658;2023-07-13T08:52:43;100445.63;;;27.72;44.97
54854;BME280;40747;49.480;8.658;2023-07-13T08:55:18;100446.88;;;28.48;43.42
54854;BME280;40747;49.480;8.658;2023-07-13T08:57:50;100445.94;;;29.08;42.85
54854;BME280;40747;49.480;8.658;2023-07-13T09:00:18;100453.44;;;28.72;43.55
54854;BME280;40747;49.480;8.658;2023-07-13T09:02:57;100443.47;;;28.81;41.69
54854;BME280;40747;49.480;8.658;2023-07-13T09:05:30;100451.91;;;29.12;41.10
54854;BME280;40747;49.480;8.658;2023-07-13T09:08:16;100449.28;;;29.70;41.18
54854;BME280;40747;49.480;8.658;2023-07-13T09:10:52;100440.28;;;30.19;39.87
54854;BME280;40747;49.480;8.658;2023-07-13T09:13:28;100436.06;;;29.75;40.91
54854;BME280;40747;49.480;8.658;2023-07-13T09:15:59;100437.09;;;29.66;41.41
54854;BME280;40747;49.480;8.658;2023-07-13T09:20:57;100446.72;;;30.26;39.86
54854;BME280;40747;49.480;8.658;2023-07-13T09:23:25;100441.47;;;29.67;40.42
54854;BME280;40747;49.480;8.658;2023-07-13T09:26:00;100426.56;;;29.63;39.82
54854;BME280;40747;49.480;8.658;2023-07-13T09:28:29;100426.81;;;29.18;40.48
54854;BME280;40747;49.480;8.658;2023-07-13T09:31:04;100433.78;;;29.21;40.97
54854;BME280;40747;49.480;8.658;2023-07-13T09:33:31;100432.59;;;29.23;41.74
54854;BME280;40747;49.480;8.658;2023-07-13T09:35:57;100438.41;;;28.86;42.03
54854;BME280;40747;49.480;8.658;2023-07-13T09:38:24;100446.06;;;27.85;43.05
54854;BME280;40747;49.480;8.658;2023-07-13T09:41:04;100440.53;;;27.69;43.87
54854;BME280;40747;49.480;8.658;2023-07-13T09:43:36;100439.03;;;27.74;44.47
54854;BME280;40747;49.480;8.658;2023-07-13T09:46:01;100443.66;;;28.53;43.46
54854;BME280;40747;49.480;8.658;2023-07-13T09:48:34;100439.59;;;28.83;41.83
54854;BME280;40747;49.480;8.658;2023-07-13T09:51:09;100440.94;;;28.87;43.04
54854;BME280;40747;49.480;8.658;2023-07-13T09:53:38;100433.88;;;29.03;42.23
54854;BME280;40747;49.480;8.658;2023-07-13T09:56:19;100439.44;;;29.44;41.60
54854;BME280;40747;49.480;8.658;2023-07-13T09:58:45;100446.66;;;28.68;41.90
54854;BME280;40747;49.480;8.658;2023-07-13T10:01:10;100436.75;;;27.15;44.40
54854;BME280;40747;49.480;8.658;2023-07-13T10:03:36;100429.63;;;27.42;44.23
54854;BME280;40747;49.480;8.658;2023-07-13T10:06:15;100440.44;;;27.78;43.79
54854;BME280;40747;49.480;8.658;2023-07-13T10:08:41;100438.31;;;27.90;43.79
54854;BME280;40747;49.480;8.658;2023-07-13T10:11:21;100436.41;;;28.27;43.65
54854;BME280;40747;49.480;8.658;2023-07-13T10:13:52;100437.31;;;27.91;43.68
54854;BME280;40747;49.480;8.658;2023-07-13T10:16:21;100435.75;;;27.62;44.07
54854;BME280;40747;49.480;8.658;2023-07-13T10:18:49;100438.66;;;27.33;44.73
54854;BME280;40747;49.480;8.658;2023-07-13T10:21:19;100435.19;;;27.41;45.71
54854;BME280;40747;49.480;8.658;2023-07-13T10:23:51;100426.56;;;27.09;44.92
54854;BME280;40747;49.480;8.658;2023-07-13T10:26:23;100439.31;;;26.89;45.49
54854;BME280;40747;49.480;8.658;2023-07-13T10:28:53;100429.75;;;26.67;45.81
54854;BME280;40747;49.480;8.658;2023-07-13T10:31:20;100431.47;;;26.68;45.06
54854;BME280;40747;49.480;8.658;2023-07-13T10:33:46;100428.22;;;27.20;44.59
54854;BME280;40747;49.480;8.658;2023-07-13T10:38:49;100420.28;;;27.73;43.62
54854;BME280;40747;49.480;8.658;2023-07-13T10:41:19;100423.59;;;27.67;44.94
54854;BME280;40747;49.480;8.658;2023-07-13T10:43:47;100435.41;;;27.29;43.61
54854;BME280;40747;49.480;8.658;2023-07-13T10:46:17;100437.72;;;27.24;43.00
54854;BME280;40747;49.480;8.658;2023-07-13T10:48:45;100441.19;;;27.35;43.97
54854;BME280;40747;49.480;8.658;2023-07-13T10:51:14;100435.16;;;27.23;43.38
54854;BME280;40747;49.480;8.658;2023-07-13T10:53:40;100427.94;;;27.13;44.37
54854;BME280;40747;49.480;8.658;2023-07-13T10:56:38;100436.31;;;26.64;43.86
54854;BME280;40747;49.480;8.658;2023-07-13T10:59:09;100438.94;;;26.46;43.92
54854;BME280;40747;49.480;8.658;2023-07-13T11:04:18;100427.94;;;27.13;44.69
54854;BME280;40747;49.480;8.658;2023-07-13T11:06:47;100421.66;;;27.59;43.99
54854;BME280;40747;49.480;8.658;2023-07-13T11:09:34;100418.31;;;27.83;43.61
54854;BME280;40747;49.480;8.658;2023-07-13T11:12:07;100430.72;;;28.12;41.83
54854;BME280;40747;49.480;8.658;2023-07-13T11:14:42;100426.97;;;27.87;41.75
54854;BME280;40747;49.480;8.658;2023-07-13T11:20:10;100419.47;;;27.26;41.62
54854;BME280;40747;49.480;8.658;2023-07-13T11:22:50;100424.63;;;27.38;41.75
54854;BME280;40747;49.480;8.658;2023-07-13T11:25:29;100413.22;;;27.62;40.32
54854;BME280;40747;49.480;8.658;2023-07-13T11:33:22;100413.53;;;27.77;38.50
54854;BME280;40747;49.480;8.658;2023-07-13T11:36:04;100404.25;;;27.79;39.84
54854;BME280;40747;49.480;8.658;2023-07-13T11:38:36;100415.47;;;27.67;39.11
54854;BME280;40747;49.480;8.658;2023-07-13T11:41:19;100396.56;;;28.11;39.62
54854;BME280;40747;49.480;8.658;2023-07-13T11:43:45;100395.50;;;28.38;39.43
54854;BME280;40747;49.480;8.658;2023-07-13T11:46:26;100412.13;;;28.78;38.25
54854;BME280;40747;49.480;8.658;2023-07-13T11:48:54;100406.34;;;28.73;38.57
54854;BME280;40747;49.480;8.658;2023-07-13T11:51:29;100409.41;;;28.78;38.58
54854;BME280;40747;49.480;8.658;2023-07-13T11:54:03;100402.81;;;28.89;38.09
54854;BME280;40747;49.480;8.658;2023-07-13T11:56:30;100410.41;;;27.90;38.67
54854;BME280;40747;49.480;8.658;2023-07-13T11:59:02;100393.97;;;27.83;39.18
54854;BME280;40747;49.480;8.658;2023-07-13T12:01:31;100405.31;;;27.33;39.53
54854;BME280;40747;49.480;8.658;2023-07-13T12:04:02;100407.16;;;27.42;39.59
54854;BME280;40747;49.480;8.658;2023-07-13T12:06:30;100411.47;;;27.53;39.71
54854;BME280;40747;49.480;8.658;2023-07-13T12:09:00;100414.63;;;27.66;39.46
54854;BME280;40747;49.480;8.658;2023-07-13T12:11:28;100409.34;;;27.64;39.32
54854;BME280;40747;49.480;8.658;2023-07-13T12:13:53;100414.03;;;27.99;39.66
54854;BME280;40747;49.480;8.658;2023-07-13T12:16:28;100407.06;;;27.96;39.24
54854;BME280;40747;49.480;8.658;2023-07-13T12:18:55;100407.22;;;28.47;39.58
54854;BME280;40747;49.480;8.658;2023-07-13T12:21:26;100412.47;;;28.75;38.23
54854;BME280;40747;49.480;8.658;2023-07-13T12:23:54;100404.78;;;28.27;38.45
54854;BME280;40747;49.480;8.658;2023-07-13T12:26:19;100404.06;;;28.25;37.53
54854;BME280;40747;49.480;8.658;2023-07-13T12:28:51;100407.66;;;27.82;37.79
54854;BME280;40747;49.480;8.658;2023-07-13T12:34:20;100403.81;;;27.66;37.77
54854;BME280;40747;49.480;8.658;2023-07-13T12:39:32;100406.59;;;28.01;38.31
54854;BME280;40747;49.480;8.658;2023-07-13T12:42:18;100408.50;;;28.35;38.01
54854;BME280;40747;49.480;8.658;2023-07-13T12:44:46;100410.06;;;28.72;36.17
54854;BME280;40747;49.480;8.658;2023-07-13T12:47:13;100409.78;;;28.83;37.16
54854;BME280;40747;49.480;8.658;2023-07-13T12:49:47;100413.69;;;28.54;38.64
54854;BME280;40747;49.480;8.658;2023-07-13T12:52:16;100422.56;;;28.04;39.33
54854;BME280;40747;49.480;8.658;2023-07-13T12:54:41;100426.09;;;27.86;39.55
54854;BME280;40747;49.480;8.658;2023-07-13T12:57:16;100416.56;;;27.56;39.54
54854;BME280;40747;49.480;8.658;2023-07-13T12:59:42;100431.97;;;27.27;40.09
54854;BME280;40747;49.480;8.658;2023-07-13T13:02:22;100433.50;;;27.12;40.38
54854;BME280;40747;49.480;8.658;2023-07-13T13:04:51;100430.81;;;27.12;40.62
54854;BME280;40747;49.480;8.658;2023-07-13T13:07:17;100428.88;;;27.04;39.80
54854;BME280;40747;49.480;8.658;2023-07-13T13:09:45;100435.59;;;27.18;39.57
54854;BME280;40747;49.480;8.658;2023-07-13T13:12:10;100439.50;;;27.52;39.37
54854;BME280;40747;49.480;8.658;2023-07-13T13:14:35;100430.09;;;27.74;39.25
54854;BME280;40747;49.480;8.658;2023-07-13T13:17:01;100437.50;;;27.72;38.87